EGNREGGP

Guest
Details From EGNR - Hawarden
To EGGP - Liverpool John Lennon
Flight Number -
Tags Routegen Generated
Created
Modified
Stats Distance 17 nm / 32 km
Max Altitude 100 ft / 30 m
Waypoints 5
Social Downloads 4
Likes 0
Share VATSIM

Download

Looking for another format? Having issues loading an existing format? Contact us
Advertisement - Login to hide

Notes

Departing runway 4 EGNR. Arriving runway 8 EGGP.

Route

EGNR +53.24_-002.89 +53.29_-002.80 +53.34_-002.71 EGGP

ID Type Via Altitude Latitude Longitude Leg Dist Tot Dist Heading (true) Name
O EGNR APT - 0 ft / 0 m 53.18504˚ -2.96763˚ - 0 nm - -
+53.24_-002.89 LATLON - 100 ft / 30 m 53.23968˚ -2.88839˚ 4 nm 4 nm 41° / 41° -
+53.29_-002.80 LATLON - 100 ft / 30 m 53.28979˚ -2.80012˚ 4 nm 8 nm 46° / 47° -
+53.34_-002.71 LATLON - 100 ft / 30 m 53.33990˚ -2.71185˚ 4 nm 13 nm 46° / 46° -
O EGGP APT - 0 ft / 0 m 53.33442˚ -2.83269˚ 4 nm 17 nm 266° / 266° -

Altitude Profile

Advertisement - Login to hide

EGNR

Details ICAO EGNR (CEG)
Name Hawarden
Region United Kingdom
Timezone Europe/London (UTC+0.0)
Stats Elevation 45 ft / 14 m (AMSL)
Location 53.178130° -2.977664°
Runways 1
Magnetic Variation 1.699° W

METAR

EGNR 170950Z 16005KT 9999 RA FEW001 SCT018 BKN049 05/04 Q1020

Decode

TAF

Not found

Departure Runways

ID Width Length Bearing (true) Bearing (mag) Surface Threshold Offset Overrun Length
05 148 ft / 45 m 6,680 ft / 2,036 m 40.93° 42.63° Asphalt 984 ft / 300 m 0 ft / 0 m
23 148 ft / 45 m 6,680 ft / 2,036 m 220.94° 222.64° Asphalt 984 ft / 300 m 0 ft / 0 m

EGGP

Details ICAO EGGP (LPL)
Name Liverpool
Region United Kingdom
Timezone Europe/London (UTC+0.0)
Stats Elevation 80 ft / 24 m (AMSL)
Location 53.333632° -2.849769°
Runways 1
Magnetic Variation 1.673° W

METAR

EGGP 170950Z 17007KT 9000 -RA FEW005 SCT013 BKN023 06/06 Q1019

Decode

TAF

TAF AMD TAF AMD EGGP 170639Z 1706/1806 10004KT 9999 FEW008 SCT025 BECMG 1706/1709 17010KT TEMPO 1706/1716 6000 -RADZ BKN008 PROB30 TEMPO 1710/1716 4000 RADZ BKN004 BECMG 1712/1715 26015KT BECMG 1716/1719 32015KT BECMG 1722/1801 30005KT PROB30 1802/1806 8000

Decode

Destination Runways

ID Width Length Bearing (true) Bearing (mag) Surface Threshold Offset Overrun Length
09 151 ft / 46 m 7,466 ft / 2,276 m 85.59° 87.26° Asphalt 180 ft / 55 m 0 ft / 0 m
27 151 ft / 46 m 7,466 ft / 2,276 m 265.61° 267.28° Asphalt 0 ft / 0 m 0 ft / 0 m

Approach Navaids

Runway Type Ident Frequency Range Bearing (true) Bearing (mag) Slope Elevation
09 Localiser ILVR 111.75 MHz 18 nm / 33 km 85.61° 87.29° - 77 ft / 23 m (AMSL)
09 Glidescope ILVR 111.75 MHz 10 nm / 19 km 85.60° 87.27° 3.00° 80 ft / 24 m (AMSL)
09 DME ILVR 111.75 MHz 18 nm / 33 km - - - 88 ft / 27 m (AMSL)
27 Localiser ILQ 111.75 MHz 18 nm / 33 km 265.05° 266.72° - 55 ft / 17 m (AMSL)
27 Glidescope ILQ 111.75 MHz 10 nm / 19 km 265.60° 267.27° 3.00° 80 ft / 24 m (AMSL)
27 DME ILQ 111.75 MHz 18 nm / 33 km - - - 88 ft / 27 m (AMSL)

Popular Alternatives